sensor_id;sensor_type;location;lat;lon;timestamp;temperature;humidity
8248;DHT22;4164;49.844;8.830;2022-12-29T00:02:08;11.80;99.90
8248;DHT22;4164;49.844;8.830;2022-12-29T00:04:34;11.70;99.90
8248;DHT22;4164;49.844;8.830;2022-12-29T00:06:59;11.80;99.90
8248;DHT22;4164;49.844;8.830;2022-12-29T00:09:26;11.70;99.90
8248;DHT22;4164;49.844;8.830;2022-12-29T00:11:51;11.70;99.90
8248;DHT22;4164;49.844;8.830;2022-12-29T00:14:17;11.70;99.90
8248;DHT22;4164;49.844;8.830;2022-12-29T00:17:02;11.70;99.90
8248;DHT22;4164;49.844;8.830;2022-12-29T00:19:28;11.70;99.90
8248;DHT22;4164;49.844;8.830;2022-12-29T00:22:13;11.60;99.90
8248;DHT22;4164;49.844;8.830;2022-12-29T00:24:58;11.60;99.90
8248;DHT22;4164;49.844;8.830;2022-12-29T00:27:28;11.50;99.90
8248;DHT22;4164;49.844;8.830;2022-12-29T00:30:15;11.50;99.90
8248;DHT22;4164;49.844;8.830;2022-12-29T00:32:59;11.50;99.90
8248;DHT22;4164;49.844;8.830;2022-12-29T00:35:52;11.40;99.90
8248;DHT22;4164;49.844;8.830;2022-12-29T00:38:19;11.30;99.90
8248;DHT22;4164;49.844;8.830;2022-12-29T00:41:04;11.20;99.90
8248;DHT22;4164;49.844;8.830;2022-12-29T00:43:48;11.10;99.90
8248;DHT22;4164;49.844;8.830;2022-12-29T00:46:36;11.10;99.90
8248;DHT22;4164;49.844;8.830;2022-12-29T00:49:02;11.00;99.90
8248;DHT22;4164;49.844;8.830;2022-12-29T00:51:46;10.80;99.90
8248;DHT22;4164;49.844;8.830;2022-12-29T00:54:12;10.50;99.90
8248;DHT22;4164;49.844;8.830;2022-12-29T00:56:37;10.30;99.90
8248;DHT22;4164;49.844;8.830;2022-12-29T00:59:06;10.10;99.90
8248;DHT22;4164;49.844;8.830;2022-12-29T01:01:32;9.90;99.90
8248;DHT22;4164;49.844;8.830;2022-12-29T01:03:57;9.80;99.90
8248;DHT22;4164;49.844;8.830;2022-12-29T01:06:23;9.70;99.90
8248;DHT22;4164;49.844;8.830;2022-12-29T01:08:49;9.70;99.90
8248;DHT22;4164;49.844;8.830;2022-12-29T01:11:33;9.80;99.90
8248;DHT22;4164;49.844;8.830;2022-12-29T01:13:58;9.80;99.90
8248;DHT22;4164;49.844;8.830;2022-12-29T01:16:24;9.80;99.90
8248;DHT22;4164;49.844;8.830;2022-12-29T01:18:50;9.80;99.90
8248;DHT22;4164;49.844;8.830;2022-12-29T01:21:15;9.80;99.90
8248;DHT22;4164;49.844;8.830;2022-12-29T01:23:41;9.90;99.90
8248;DHT22;4164;49.844;8.830;2022-12-29T01:26:11;10.00;99.90
8248;DHT22;4164;49.844;8.830;2022-12-29T01:28:37;10.10;99.90
8248;DHT22;4164;49.844;8.830;2022-12-29T01:31:05;10.00;99.90
8248;DHT22;4164;49.844;8.830;2022-12-29T01:33:31;9.90;99.90
8248;DHT22;4164;49.844;8.830;2022-12-29T01:36:01;9.90;99.90
8248;DHT22;4164;49.844;8.830;2022-12-29T01:38:26;10.00;99.90
8248;DHT22;4164;49.844;8.830;2022-12-29T01:40:52;10.20;99.90
8248;DHT22;4164;49.844;8.830;2022-12-29T01:43:17;10.20;99.90
8248;DHT22;4164;49.844;8.830;2022-12-29T01:45:52;10.20;99.90
8248;DHT22;4164;49.844;8.830;2022-12-29T01:48:19;10.20;99.90
8248;DHT22;4164;49.844;8.830;2022-12-29T01:50:53;10.20;99.90
8248;DHT22;4164;49.844;8.830;2022-12-29T01:53:26;10.20;99.90
8248;DHT22;4164;49.844;8.830;2022-12-29T01:55:57;10.20;99.90
8248;DHT22;4164;49.844;8.830;2022-12-29T01:58:28;10.20;99.90
8248;DHT22;4164;49.844;8.830;2022-12-29T02:00:55;10.10;99.90
8248;DHT22;4164;49.844;8.830;2022-12-29T02:03:23;10.20;99.90
8248;DHT22;4164;49.844;8.830;2022-12-29T02:08:26;10.30;99.90
8248;DHT22;4164;49.844;8.830;2022-12-29T02:10:53;10.30;99.90
8248;DHT22;4164;49.844;8.830;2022-12-29T02:13:20;10.40;99.90
8248;DHT22;4164;49.844;8.830;2022-12-29T02:18:52;10.50;99.90
8248;DHT22;4164;49.844;8.830;2022-12-29T02:27:48;10.70;99.90
8248;DHT22;4164;49.844;8.830;2022-12-29T02:30:53;10.70;99.90
8248;DHT22;4164;49.844;8.830;2022-12-29T02:36:45;10.70;99.90
8248;DHT22;4164;49.844;8.830;2022-12-29T02:39:22;10.80;99.90
8248;DHT22;4164;49.844;8.830;2022-12-29T02:46:55;10.90;99.90
8248;DHT22;4164;49.844;8.830;2022-12-29T02:49:45;10.90;99.90
8248;DHT22;4164;49.844;8.830;2022-12-29T02:52:36;10.90;99.90
8248;DHT22;4164;49.844;8.830;2022-12-29T02:55:04;10.90;99.90
8248;DHT22;4164;49.844;8.830;2022-12-29T02:57:34;10.90;99.90
8248;DHT22;4164;49.844;8.830;2022-12-29T03:00:04;10.90;99.90
8248;DHT22;4164;49.844;8.830;2022-12-29T03:05:04;10.90;99.90
8248;DHT22;4164;49.844;8.830;2022-12-29T03:12:57;11.10;99.90
8248;DHT22;4164;49.844;8.830;2022-12-29T03:15:53;11.00;99.90
8248;DHT22;4164;49.844;8.830;2022-12-29T03:18:33;11.10;99.90
8248;DHT22;4164;49.844;8.830;2022-12-29T03:22:13;11.10;99.90
8248;DHT22;4164;49.844;8.830;2022-12-29T03:24:27;11.00;99.90
8248;DHT22;4164;49.844;8.830;2022-12-29T03:26:56;11.00;99.90
8248;DHT22;4164;49.844;8.830;2022-12-29T03:29:24;11.10;99.90
8248;DHT22;4164;49.844;8.830;2022-12-29T03:31:51;11.10;99.90
8248;DHT22;4164;49.844;8.830;2022-12-29T03:34:19;11.20;99.90
8248;DHT22;4164;49.844;8.830;2022-12-29T03:36:59;11.10;99.90
8248;DHT22;4164;49.844;8.830;2022-12-29T03:39:26;11.20;99.90
8248;DHT22;4164;49.844;8.830;2022-12-29T03:41:58;11.20;99.90
8248;DHT22;4164;49.844;8.830;2022-12-29T03:44:39;11.30;99.90
8248;DHT22;4164;49.844;8.830;2022-12-29T03:47:06;11.20;99.90
8248;DHT22;4164;49.844;8.830;2022-12-29T03:49:32;11.20;99.90
8248;DHT22;4164;49.844;8.830;2022-12-29T03:51:58;11.20;99.90
8248;DHT22;4164;49.844;8.830;2022-12-29T03:54:24;11.20;99.90
8248;DHT22;4164;49.844;8.830;2022-12-29T03:56:49;11.30;99.90
8248;DHT22;4164;49.844;8.830;2022-12-29T03:59:15;11.30;99.90
8248;DHT22;4164;49.844;8.830;2022-12-29T04:01:40;11.30;99.90
8248;DHT22;4164;49.844;8.830;2022-12-29T04:04:06;11.30;99.90
8248;DHT22;4164;49.844;8.830;2022-12-29T04:06:31;11.30;99.90
8248;DHT22;4164;49.844;8.830;2022-12-29T04:08:57;11.30;99.90
8248;DHT22;4164;49.844;8.830;2022-12-29T04:11:23;11.30;99.90
8248;DHT22;4164;49.844;8.830;2022-12-29T04:13:48;11.30;99.90
8248;DHT22;4164;49.844;8.830;2022-12-29T04:16:14;11.30;99.90
8248;DHT22;4164;49.844;8.830;2022-12-29T04:18:40;11.30;99.90
8248;DHT22;4164;49.844;8.830;2022-12-29T04:21:06;11.40;99.90
8248;DHT22;4164;49.844;8.830;2022-12-29T04:23:34;11.40;99.90
8248;DHT22;4164;49.844;8.830;2022-12-29T04:26:00;11.40;99.90
8248;DHT22;4164;49.844;8.830;2022-12-29T04:28:26;11.40;99.90
8248;DHT22;4164;49.844;8.830;2022-12-29T04:30:52;11.40;99.90
8248;DHT22;4164;49.844;8.830;2022-12-29T04:33:18;11.40;99.90
8248;DHT22;4164;49.844;8.830;2022-12-29T04:35:44;11.50;99.90
8248;DHT22;4164;49.844;8.830;2022-12-29T04:38:10;11.40;99.90
8248;DHT22;4164;49.844;8.830;2022-12-29T04:40:38;11.40;99.90
8248;DHT22;4164;49.844;8.830;2022-12-29T04:43:04;11.50;99.90
8248;DHT22;4164;49.844;8.830;2022-12-29T04:45:30;11.50;99.90
8248;DHT22;4164;49.844;8.830;2022-12-29T04:47:55;11.50;99.90
8248;DHT22;4164;49.844;8.830;2022-12-29T04:50:21;11.50;99.90
8248;DHT22;4164;49.844;8.830;2022-12-29T04:52:47;11.60;99.90
8248;DHT22;4164;49.844;8.830;2022-12-29T04:55:12;11.50;99.90
8248;DHT22;4164;49.844;8.830;2022-12-29T04:57:38;11.50;99.90
8248;DHT22;4164;49.844;8.830;2022-12-29T05:00:04;11.50;99.90
8248;DHT22;4164;49.844;8.830;2022-12-29T05:02:29;11.50;99.90
8248;DHT22;4164;49.844;8.830;2022-12-29T05:04:55;11.50;99.90
8248;DHT22;4164;49.844;8.830;2022-12-29T05:07:21;11.50;99.90
8248;DHT22;4164;49.844;8.830;2022-12-29T05:09:49;11.50;99.90
8248;DHT22;4164;49.844;8.830;2022-12-29T05:12:14;11.50;99.90
8248;DHT22;4164;49.844;8.830;2022-12-29T05:14:40;11.50;99.90
8248;DHT22;4164;49.844;8.830;2022-12-29T05:17:05;11.50;99.90
8248;DHT22;4164;49.844;8.830;2022-12-29T05:19:31;11.50;99.90
8248;DHT22;4164;49.844;8.830;2022-12-29T05:21:57;11.50;99.90
8248;DHT22;4164;49.844;8.830;2022-12-29T05:24:23;11.50;99.90
8248;DHT22;4164;49.844;8.830;2022-12-29T05:26:48;11.50;99.90
8248;DHT22;4164;49.844;8.830;2022-12-29T05:29:14;11.50;99.90
8248;DHT22;4164;49.844;8.830;2022-12-29T05:31:39;11.60;99.90
8248;DHT22;4164;49.844;8.830;2022-12-29T05:34:05;11.50;99.90
8248;DHT22;4164;49.844;8.830;2022-12-29T05:36:30;11.50;99.90
8248;DHT22;4164;49.844;8.830;2022-12-29T05:38:56;11.60;99.90
8248;DHT22;4164;49.844;8.830;2022-12-29T05:41:21;11.60;99.90
8248;DHT22;4164;49.844;8.830;2022-12-29T05:43:47;11.60;99.90
8248;DHT22;4164;49.844;8.830;2022-12-29T05:46:12;11.60;99.90
8248;DHT22;4164;49.844;8.830;2022-12-29T05:48:38;11.70;99.90
8248;DHT22;4164;49.844;8.830;2022-12-29T05:51:03;11.60;99.90
8248;DHT22;4164;49.844;8.830;2022-12-29T05:53:29;11.60;99.90
8248;DHT22;4164;49.844;8.830;2022-12-29T05:55:54;11.70;99.90
8248;DHT22;4164;49.844;8.830;2022-12-29T05:58:20;11.70;99.90
8248;DHT22;4164;49.844;8.830;2022-12-29T06:00:46;11.70;99.90
8248;DHT22;4164;49.844;8.830;2022-12-29T06:03:11;11.70;99.90
8248;DHT22;4164;49.844;8.830;2022-12-29T06:05:37;11.70;99.90
8248;DHT22;4164;49.844;8.830;2022-12-29T06:08:03;11.80;99.90
8248;DHT22;4164;49.844;8.830;2022-12-29T06:10:28;11.80;99.90
8248;DHT22;4164;49.844;8.830;2022-12-29T06:12:54;11.80;99.90
8248;DHT22;4164;49.844;8.830;2022-12-29T06:15:19;11.80;99.90
8248;DHT22;4164;49.844;8.830;2022-12-29T06:17:45;11.80;99.90
8248;DHT22;4164;49.844;8.830;2022-12-29T06:20:11;11.80;99.90
8248;DHT22;4164;49.844;8.830;2022-12-29T06:22:37;11.80;99.90
8248;DHT22;4164;49.844;8.830;2022-12-29T06:25:03;11.80;99.90
8248;DHT22;4164;49.844;8.830;2022-12-29T06:27:29;11.70;99.90
8248;DHT22;4164;49.844;8.830;2022-12-29T06:29:54;11.70;99.90
8248;DHT22;4164;49.844;8.830;2022-12-29T06:32:20;11.70;99.90
8248;DHT22;4164;49.844;8.830;2022-12-29T06:34:46;11.70;99.90
8248;DHT22;4164;49.844;8.830;2022-12-29T06:37:12;11.70;99.90
8248;DHT22;4164;49.844;8.830;2022-12-29T06:39:37;11.70;99.90
8248;DHT22;4164;49.844;8.830;2022-12-29T06:42:03;11.70;99.90
8248;DHT22;4164;49.844;8.830;2022-12-29T06:44:28;11.80;99.90
8248;DHT22;4164;49.844;8.830;2022-12-29T06:46:54;11.80;99.90
8248;DHT22;4164;49.844;8.830;2022-12-29T06:49:20;11.80;99.90
8248;DHT22;4164;49.844;8.830;2022-12-29T06:51:46;11.80;99.90
8248;DHT22;4164;49.844;8.830;2022-12-29T06:54:12;11.80;99.90
8248;DHT22;4164;49.844;8.830;2022-12-29T06:56:37;11.80;99.90
8248;DHT22;4164;49.844;8.830;2022-12-29T06:59:03;11.80;99.90
8248;DHT22;4164;49.844;8.830;2022-12-29T07:01:29;11.80;99.90
8248;DHT22;4164;49.844;8.830;2022-12-29T07:03:54;11.80;99.90
8248;DHT22;4164;49.844;8.830;2022-12-29T07:06:20;11.80;99.90
8248;DHT22;4164;49.844;8.830;2022-12-29T07:08:46;11.90;99.90
8248;DHT22;4164;49.844;8.830;2022-12-29T07:11:11;11.80;99.90
8248;DHT22;4164;49.844;8.830;2022-12-29T07:13:37;11.80;99.90
8248;DHT22;4164;49.844;8.830;2022-12-29T07:16:07;11.80;99.90
8248;DHT22;4164;49.844;8.830;2022-12-29T07:18:33;11.90;99.90
8248;DHT22;4164;49.844;8.830;2022-12-29T07:20:58;11.90;99.90
8248;DHT22;4164;49.844;8.830;2022-12-29T07:23:24;12.00;99.90
8248;DHT22;4164;49.844;8.830;2022-12-29T07:25:50;12.00;99.90
8248;DHT22;4164;49.844;8.830;2022-12-29T07:28:15;11.90;99.90
8248;DHT22;4164;49.844;8.830;2022-12-29T07:30:41;12.00;99.90
8248;DHT22;4164;49.844;8.830;2022-12-29T07:33:06;11.80;99.90
8248;DHT22;4164;49.844;8.830;2022-12-29T07:35:33;11.60;99.90
8248;DHT22;4164;49.844;8.830;2022-12-29T07:37:59;11.40;99.90
8248;DHT22;4164;49.844;8.830;2022-12-29T07:40:24;11.30;99.90
8248;DHT22;4164;49.844;8.830;2022-12-29T07:42:50;11.20;99.90
8248;DHT22;4164;49.844;8.830;2022-12-29T07:45:16;11.10;99.90
8248;DHT22;4164;49.844;8.830;2022-12-29T07:47:41;11.00;99.90
8248;DHT22;4164;49.844;8.830;2022-12-29T07:50:07;11.10;99.90
8248;DHT22;4164;49.844;8.830;2022-12-29T07:52:32;11.10;99.90
8248;DHT22;4164;49.844;8.830;2022-12-29T07:54:58;11.20;99.90
8248;DHT22;4164;49.844;8.830;2022-12-29T07:57:23;11.30;99.90
8248;DHT22;4164;49.844;8.830;2022-12-29T07:59:49;11.30;99.90
8248;DHT22;4164;49.844;8.830;2022-12-29T08:02:14;11.30;99.90
8248;DHT22;4164;49.844;8.830;2022-12-29T08:04:40;11.50;99.90
8248;DHT22;4164;49.844;8.830;2022-12-29T08:07:05;11.60;99.90
8248;DHT22;4164;49.844;8.830;2022-12-29T08:09:31;11.60;99.90
8248;DHT22;4164;49.844;8.830;2022-12-29T08:11:56;11.60;99.90
8248;DHT22;4164;49.844;8.830;2022-12-29T08:14:22;11.70;99.90
8248;DHT22;4164;49.844;8.830;2022-12-29T08:16:47;11.80;99.90
8248;DHT22;4164;49.844;8.830;2022-12-29T08:19:19;11.90;99.90
8248;DHT22;4164;49.844;8.830;2022-12-29T08:21:44;11.90;99.90
8248;DHT22;4164;49.844;8.830;2022-12-29T08:24:10;11.90;99.90
8248;DHT22;4164;49.844;8.830;2022-12-29T08:26:35;11.90;99.90
8248;DHT22;4164;49.844;8.830;2022-12-29T08:29:01;12.00;99.90
8248;DHT22;4164;49.844;8.830;2022-12-29T08:31:26;11.80;99.90
8248;DHT22;4164;49.844;8.830;2022-12-29T08:33:52;11.80;99.90
8248;DHT22;4164;49.844;8.830;2022-12-29T08:36:18;11.70;99.90
8248;DHT22;4164;49.844;8.830;2022-12-29T08:38:43;11.80;99.90
8248;DHT22;4164;49.844;8.830;2022-12-29T08:41:09;11.80;99.90
8248;DHT22;4164;49.844;8.830;2022-12-29T08:43:34;11.90;99.90
8248;DHT22;4164;49.844;8.830;2022-12-29T08:46:00;12.00;99.90
8248;DHT22;4164;49.844;8.830;2022-12-29T08:48:26;12.10;99.90
8248;DHT22;4164;49.844;8.830;2022-12-29T08:50:52;12.20;99.90
8248;DHT22;4164;49.844;8.830;2022-12-29T08:53:18;12.20;99.90
8248;DHT22;4164;49.844;8.830;2022-12-29T08:55:54;12.20;99.90
8248;DHT22;4164;49.844;8.830;2022-12-29T08:58:19;12.20;99.90
8248;DHT22;4164;49.844;8.830;2022-12-29T09:00:45;12.30;99.90
8248;DHT22;4164;49.844;8.830;2022-12-29T09:03:11;12.30;99.90
8248;DHT22;4164;49.844;8.830;2022-12-29T09:05:36;12.30;99.90
8248;DHT22;4164;49.844;8.830;2022-12-29T09:08:02;12.40;99.90
8248;DHT22;4164;49.844;8.830;2022-12-29T09:10:28;12.40;99.90
8248;DHT22;4164;49.844;8.830;2022-12-29T09:12:53;12.40;99.90
8248;DHT22;4164;49.844;8.830;2022-12-29T09:15:19;12.40;99.90
8248;DHT22;4164;49.844;8.830;2022-12-29T09:17:44;12.40;99.90
8248;DHT22;4164;49.844;8.830;2022-12-29T09:20:15;12.50;99.90
8248;DHT22;4164;49.844;8.830;2022-12-29T09:22:42;12.40;99.90
8248;DHT22;4164;49.844;8.830;2022-12-29T09:25:09;12.40;99.90
8248;DHT22;4164;49.844;8.830;2022-12-29T09:27:35;12.40;99.90
8248;DHT22;4164;49.844;8.830;2022-12-29T09:30:01;12.40;99.90
8248;DHT22;4164;49.844;8.830;2022-12-29T09:32:26;12.50;99.90
8248;DHT22;4164;49.844;8.830;2022-12-29T09:34:52;12.60;99.90
8248;DHT22;4164;49.844;8.830;2022-12-29T09:37:18;12.60;99.90
8248;DHT22;4164;49.844;8.830;2022-12-29T09:39:43;12.70;99.90
8248;DHT22;4164;49.844;8.830;2022-12-29T09:42:45;12.80;99.90
8248;DHT22;4164;49.844;8.830;2022-12-29T09:45:20;12.80;99.90
8248;DHT22;4164;49.844;8.830;2022-12-29T09:47:47;12.60;99.90
8248;DHT22;4164;49.844;8.830;2022-12-29T09:53:14;13.10;99.90
8248;DHT22;4164;49.844;8.830;2022-12-29T09:55:46;12.80;99.90
8248;DHT22;4164;49.844;8.830;2022-12-29T10:03:19;12.60;99.90
8248;DHT22;4164;49.844;8.830;2022-12-29T10:06:17;12.60;99.90
8248;DHT22;4164;49.844;8.830;2022-12-29T10:08:48;12.70;99.90
8248;DHT22;4164;49.844;8.830;2022-12-29T10:20:19;12.60;99.90
8248;DHT22;4164;49.844;8.830;2022-12-29T10:25:38;12.70;99.90
8248;DHT22;4164;49.844;8.830;2022-12-29T10:28:11;12.80;99.90
8248;DHT22;4164;49.844;8.830;2022-12-29T10:30:41;13.50;99.90
8248;DHT22;4164;49.844;8.830;2022-12-29T10:33:11;14.80;99.90
8248;DHT22;4164;49.844;8.830;2022-12-29T10:35:42;15.20;99.90
8248;DHT22;4164;49.844;8.830;2022-12-29T10:38:21;14.70;99.90
8248;DHT22;4164;49.844;8.830;2022-12-29T10:41:21;14.10;99.90
8248;DHT22;4164;49.844;8.830;2022-12-29T10:43:51;13.30;99.90
8248;DHT22;4164;49.844;8.830;2022-12-29T10:46:43;13.10;99.90
8248;DHT22;4164;49.844;8.830;2022-12-29T10:49:17;12.80;99.90
8248;DHT22;4164;49.844;8.830;2022-12-29T10:51:44;12.70;99.90
8248;DHT22;4164;49.844;8.830;2022-12-29T10:56:43;12.20;99.90
8248;DHT22;4164;49.844;8.830;2022-12-29T10:59:20;11.90;99.90
8248;DHT22;4164;49.844;8.830;2022-12-29T11:07:12;11.30;99.90
8248;DHT22;4164;49.844;8.830;2022-12-29T11:09:40;11.10;99.90
8248;DHT22;4164;49.844;8.830;2022-12-29T11:12:24;10.90;99.90
8248;DHT22;4164;49.844;8.830;2022-12-29T11:17:53;10.30;99.90
8248;DHT22;4164;49.844;8.830;2022-12-29T11:20:38;10.10;99.90
8248;DHT22;4164;49.844;8.830;2022-12-29T11:23:20;10.10;99.90
8248;DHT22;4164;49.844;8.830;2022-12-29T11:25:49;10.00;99.90
8248;DHT22;4164;49.844;8.830;2022-12-29T11:28:30;10.00;99.90
8248;DHT22;4164;49.844;8.830;2022-12-29T11:31:01;10.00;99.90
8248;DHT22;4164;49.844;8.830;2022-12-29T11:33:29;9.90;99.90
8248;DHT22;4164;49.844;8.830;2022-12-29T11:38:48;9.80;99.90
8248;DHT22;4164;49.844;8.830;2022-12-29T11:41:24;9.90;99.90
8248;DHT22;4164;49.844;8.830;2022-12-29T11:43:52;10.80;99.90
8248;DHT22;4164;49.844;8.830;2022-12-29T11:46:33;12.00;99.90
8248;DHT22;4164;49.844;8.830;2022-12-29T11:48:59;12.30;99.90
8248;DHT22;4164;49.844;8.830;2022-12-29T11:51:43;13.70;99.90
8248;DHT22;4164;49.844;8.830;2022-12-29T11:54:25;13.80;99.90
8248;DHT22;4164;49.844;8.830;2022-12-29T11:56:53;12.80;99.90
8248;DHT22;4164;49.844;8.830;2022-12-29T12:01:58;13.40;99.90
8248;DHT22;4164;49.844;8.830;2022-12-29T12:04:27;13.90;99.90
8248;DHT22;4164;49.844;8.830;2022-12-29T12:07:02;13.40;99.90
8248;DHT22;4164;49.844;8.830;2022-12-29T12:09:36;13.10;99.90
8248;DHT22;4164;49.844;8.830;2022-12-29T12:12:04;12.60;99.90
8248;DHT22;4164;49.844;8.830;2022-12-29T12:14:36;12.50;99.90
8248;DHT22;4164;49.844;8.830;2022-12-29T12:17:14;12.00;99.90
8248;DHT22;4164;49.844;8.830;2022-12-29T12:19:55;11.70;99.90
8248;DHT22;4164;49.844;8.830;2022-12-29T12:22:38;11.60;99.90
8248;DHT22;4164;49.844;8.830;2022-12-29T12:25:17;12.10;99.90
8248;DHT22;4164;49.844;8.830;2022-12-29T12:27:57;12.20;99.90
8248;DHT22;4164;49.844;8.830;2022-12-29T12:30:25;12.00;99.90
8248;DHT22;4164;49.844;8.830;2022-12-29T12:41:25;12.30;99.90
8248;DHT22;4164;49.844;8.830;2022-12-29T12:44:18;12.00;99.90
8248;DHT22;4164;49.844;8.830;2022-12-29T12:50:27;11.60;99.90
8248;DHT22;4164;49.844;8.830;2022-12-29T12:53:36;11.70;99.90
8248;DHT22;4164;49.844;8.830;2022-12-29T12:58:57;11.80;99.90
8248;DHT22;4164;49.844;8.830;2022-12-29T13:01:42;11.90;99.90
8248;DHT22;4164;49.844;8.830;2022-12-29T13:12:56;11.70;99.90
8248;DHT22;4164;49.844;8.830;2022-12-29T13:15:43;11.70;99.90
8248;DHT22;4164;49.844;8.830;2022-12-29T13:21:27;11.70;99.90
8248;DHT22;4164;49.844;8.830;2022-12-29T13:26:49;11.70;99.90
8248;DHT22;4164;49.844;8.830;2022-12-29T13:35:38;11.80;99.90
8248;DHT22;4164;49.844;8.830;2022-12-29T13:37:47;11.80;99.90
8248;DHT22;4164;49.844;8.830;2022-12-29T13:40:17;11.80;99.90
8248;DHT22;4164;49.844;8.830;2022-12-29T13:42:45;11.80;99.90
8248;DHT22;4164;49.844;8.830;2022-12-29T13:45:14;11.90;99.90
8248;DHT22;4164;49.844;8.830;2022-12-29T13:47:52;11.90;99.90
8248;DHT22;4164;49.844;8.830;2022-12-29T13:50:25;11.90;99.90
8248;DHT22;4164;49.844;8.830;2022-12-29T13:53:19;11.90;99.90
8248;DHT22;4164;49.844;8.830;2022-12-29T13:55:56;11.80;99.90
8248;DHT22;4164;49.844;8.830;2022-12-29T14:01:28;11.70;99.90
8248;DHT22;4164;49.844;8.830;2022-12-29T14:03:57;11.70;99.90
8248;DHT22;4164;49.844;8.830;2022-12-29T14:06:29;11.70;99.90
8248;DHT22;4164;49.844;8.830;2022-12-29T14:08:59;11.80;99.90
8248;DHT22;4164;49.844;8.830;2022-12-29T14:13:56;11.70;99.90
8248;DHT22;4164;49.844;8.830;2022-12-29T14:16:33;11.70;99.90
8248;DHT22;4164;49.844;8.830;2022-12-29T14:19:13;11.60;99.90
8248;DHT22;4164;49.844;8.830;2022-12-29T14:21:41;11.60;99.90
8248;DHT22;4164;49.844;8.830;2022-12-29T14:26:58;11.50;99.90
8248;DHT22;4164;49.844;8.830;2022-12-29T14:31:49;11.50;99.90
8248;DHT22;4164;49.844;8.830;2022-12-29T14:36:57;11.40;99.90
8248;DHT22;4164;49.844;8.830;2022-12-29T14:50:06;11.20;99.90
8248;DHT22;4164;49.844;8.830;2022-12-29T14:52:52;11.20;99.90
8248;DHT22;4164;49.844;8.830;2022-12-29T14:55:37;11.20;99.90
8248;DHT22;4164;49.844;8.830;2022-12-29T14:58:06;11.10;99.90
8248;DHT22;4164;49.844;8.830;2022-12-29T15:00:36;11.10;99.90
8248;DHT22;4164;49.844;8.830;2022-12-29T15:03:10;11.10;99.90
8248;DHT22;4164;49.844;8.830;2022-12-29T15:08:03;11.00;99.90
8248;DHT22;4164;49.844;8.830;2022-12-29T15:10:37;10.90;99.90
8248;DHT22;4164;49.844;8.830;2022-12-29T15:13:09;10.90;99.90
8248;DHT22;4164;49.844;8.830;2022-12-29T15:15:40;10.90;99.90
8248;DHT22;4164;49.844;8.830;2022-12-29T15:18:23;10.80;99.90
8248;DHT22;4164;49.844;8.830;2022-12-29T15:20:55;10.70;99.90
8248;DHT22;4164;49.844;8.830;2022-12-29T15:23:22;10.60;99.90
8248;DHT22;4164;49.844;8.830;2022-12-29T15:25:55;10.50;99.90
8248;DHT22;4164;49.844;8.830;2022-12-29T15:28:21;10.40;99.90
8248;DHT22;4164;49.844;8.830;2022-12-29T15:31:03;10.30;99.90
8248;DHT22;4164;49.844;8.830;2022-12-29T15:33:30;10.20;99.90
8248;DHT22;4164;49.844;8.830;2022-12-29T15:35:57;10.10;99.90
8248;DHT22;4164;49.844;8.830;2022-12-29T15:38:29;10.10;99.90
8248;DHT22;4164;49.844;8.830;2022-12-29T15:40:59;10.10;99.90
8248;DHT22;4164;49.844;8.830;2022-12-29T15:45:57;10.10;99.90
8248;DHT22;4164;49.844;8.830;2022-12-29T15:48:24;10.00;99.90
8248;DHT22;4164;49.844;8.830;2022-12-29T15:50:50;10.00;99.90
8248;DHT22;4164;49.844;8.830;2022-12-29T15:53:42;9.90;99.90
8248;DHT22;4164;49.844;8.830;2022-12-29T15:56:11;9.90;99.90
8248;DHT22;4164;49.844;8.830;2022-12-29T15:58:43;9.80;99.90
8248;DHT22;4164;49.844;8.830;2022-12-29T16:03:46;9.80;99.90
8248;DHT22;4164;49.844;8.830;2022-12-29T16:11:43;9.60;99.90
8248;DHT22;4164;49.844;8.830;2022-12-29T16:14:16;9.60;99.90
8248;DHT22;4164;49.844;8.830;2022-12-29T16:16:43;9.70;99.90
8248;DHT22;4164;49.844;8.830;2022-12-29T16:19:22;9.70;99.90
8248;DHT22;4164;49.844;8.830;2022-12-29T16:21:49;9.70;99.90
8248;DHT22;4164;49.844;8.830;2022-12-29T16:24:17;9.70;99.90
8248;DHT22;4164;49.844;8.830;2022-12-29T16:27:19;9.60;99.90
8248;DHT22;4164;49.844;8.830;2022-12-29T16:29:46;9.60;99.90
8248;DHT22;4164;49.844;8.830;2022-12-29T16:37:37;9.50;99.90
8248;DHT22;4164;49.844;8.830;2022-12-29T16:42:49;9.50;99.90
8248;DHT22;4164;49.844;8.830;2022-12-29T16:48:17;9.50;99.90
8248;DHT22;4164;49.844;8.830;2022-12-29T16:50:44;9.40;99.90
8248;DHT22;4164;49.844;8.830;2022-12-29T16:53:40;9.40;99.90
8248;DHT22;4164;49.844;8.830;2022-12-29T16:56:17;9.40;99.90
8248;DHT22;4164;49.844;8.830;2022-12-29T17:01:25;9.50;99.90
8248;DHT22;4164;49.844;8.830;2022-12-29T17:04:06;9.50;99.90
8248;DHT22;4164;49.844;8.830;2022-12-29T17:06:33;9.50;99.90
8248;DHT22;4164;49.844;8.830;2022-12-29T17:08:58;9.60;99.90
8248;DHT22;4164;49.844;8.830;2022-12-29T17:16:43;9.60;99.90
8248;DHT22;4164;49.844;8.830;2022-12-29T17:19:16;9.70;99.90
8248;DHT22;4164;49.844;8.830;2022-12-29T17:21:41;9.60;99.90
8248;DHT22;4164;49.844;8.830;2022-12-29T17:24:17;9.70;99.90
8248;DHT22;4164;49.844;8.830;2022-12-29T17:26:47;9.60;99.90
8248;DHT22;4164;49.844;8.830;2022-12-29T17:31:55;9.70;99.90
8248;DHT22;4164;49.844;8.830;2022-12-29T17:34:21;9.70;99.90
8248;DHT22;4164;49.844;8.830;2022-12-29T17:36:47;9.70;99.90
8248;DHT22;4164;49.844;8.830;2022-12-29T17:39:13;9.80;99.90
8248;DHT22;4164;49.844;8.830;2022-12-29T17:41:38;9.70;99.90
8248;DHT22;4164;49.844;8.830;2022-12-29T17:44:05;9.70;99.90
8248;DHT22;4164;49.844;8.830;2022-12-29T17:46:31;9.70;99.90
8248;DHT22;4164;49.844;8.830;2022-12-29T17:48:59;9.70;99.90
8248;DHT22;4164;49.844;8.830;2022-12-29T17:51:25;9.70;99.90
8248;DHT22;4164;49.844;8.830;2022-12-29T17:53:51;9.70;99.90
8248;DHT22;4164;49.844;8.830;2022-12-29T17:56:17;9.70;99.90
8248;DHT22;4164;49.844;8.830;2022-12-29T17:58:49;9.70;99.90
8248;DHT22;4164;49.844;8.830;2022-12-29T18:01:16;9.70;99.90
8248;DHT22;4164;49.844;8.830;2022-12-29T18:03:42;9.80;99.90
8248;DHT22;4164;49.844;8.830;2022-12-29T18:06:10;9.80;99.90
8248;DHT22;4164;49.844;8.830;2022-12-29T18:08:38;9.80;99.90
8248;DHT22;4164;49.844;8.830;2022-12-29T18:11:11;9.80;99.90
8248;DHT22;4164;49.844;8.830;2022-12-29T18:13:41;9.80;99.90
8248;DHT22;4164;49.844;8.830;2022-12-29T18:16:07;9.80;99.90
8248;DHT22;4164;49.844;8.830;2022-12-29T18:18:34;9.80;99.90
8248;DHT22;4164;49.844;8.830;2022-12-29T18:21:00;9.80;99.90
8248;DHT22;4164;49.844;8.830;2022-12-29T18:23:27;9.80;99.90
8248;DHT22;4164;49.844;8.830;2022-12-29T18:26:11;9.80;99.90
8248;DHT22;4164;49.844;8.830;2022-12-29T18:28:37;9.80;99.90
8248;DHT22;4164;49.844;8.830;2022-12-29T18:31:03;9.80;99.90
8248;DHT22;4164;49.844;8.830;2022-12-29T18:33:28;9.80;99.90
8248;DHT22;4164;49.844;8.830;2022-12-29T18:36:02;9.80;99.90
8248;DHT22;4164;49.844;8.830;2022-12-29T18:38:28;9.80;99.90
8248;DHT22;4164;49.844;8.830;2022-12-29T18:40:54;9.80;99.90
8248;DHT22;4164;49.844;8.830;2022-12-29T18:43:21;9.80;99.90
8248;DHT22;4164;49.844;8.830;2022-12-29T18:45:47;9.80;99.90
8248;DHT22;4164;49.844;8.830;2022-12-29T18:48:14;9.80;99.90
8248;DHT22;4164;49.844;8.830;2022-12-29T18:50:40;9.80;99.90
8248;DHT22;4164;49.844;8.830;2022-12-29T18:53:05;9.70;99.90
8248;DHT22;4164;49.844;8.830;2022-12-29T18:55:34;9.70;99.90
8248;DHT22;4164;49.844;8.830;2022-12-29T18:57:59;9.70;99.90
8248;DHT22;4164;49.844;8.830;2022-12-29T19:00:25;9.70;99.90
8248;DHT22;4164;49.844;8.830;2022-12-29T19:02:51;9.70;99.90